createdAt,value
2016-12-05T00:00:02.547Z,0
2016-12-05T00:01:03.436Z,0
2016-12-05T00:02:04.095Z,0
2016-12-05T00:03:04.750Z,0
2016-12-05T00:04:05.563Z,0
2016-12-05T00:05:06.200Z,0
2016-12-05T00:06:06.952Z,0
2016-12-05T00:07:07.809Z,0
2016-12-05T00:08:08.431Z,0
2016-12-05T00:09:09.052Z,0
2016-12-05T00:10:09.666Z,0
2016-12-05T00:11:10.298Z,0
2016-12-05T00:12:10.929Z,0
2016-12-05T00:13:11.570Z,0
2016-12-05T00:14:12.190Z,0
2016-12-05T00:15:12.814Z,0
2016-12-05T00:16:13.439Z,0
2016-12-05T00:17:14.066Z,0
2016-12-05T00:18:14.678Z,0
2016-12-05T00:19:15.304Z,0
2016-12-05T00:20:15.926Z,0
2016-12-05T00:21:16.554Z,0
2016-12-05T00:22:17.179Z,0
2016-12-05T00:23:17.795Z,0
2016-12-05T00:24:18.407Z,0
2016-12-05T00:25:19.016Z,0
2016-12-05T00:26:19.619Z,0
2016-12-05T00:27:20.242Z,0
2016-12-05T00:28:20.851Z,0
2016-12-05T00:29:21.489Z,0
2016-12-05T00:30:22.097Z,0
2016-12-05T00:31:22.740Z,0
2016-12-05T00:32:23.380Z,0
2016-12-05T00:33:24.071Z,0
2016-12-05T00:34:24.699Z,0
2016-12-05T00:35:25.328Z,0
2016-12-05T00:36:25.966Z,0
2016-12-05T00:37:26.648Z,0
2016-12-05T00:38:27.261Z,0
2016-12-05T00:39:27.892Z,0
2016-12-05T00:40:28.500Z,0
2016-12-05T00:41:29.110Z,0
2016-12-05T00:42:29.725Z,0
2016-12-05T00:43:30.331Z,0
2016-12-05T00:44:30.981Z,0
2016-12-05T00:45:31.589Z,0
2016-12-05T00:46:32.200Z,0
2016-12-05T00:47:32.833Z,0
2016-12-05T00:48:33.479Z,0
2016-12-05T00:49:34.088Z,0
2016-12-05T00:50:34.698Z,0
2016-12-05T00:51:35.306Z,0
2016-12-05T00:52:35.939Z,0
2016-12-05T00:53:36.542Z,0
2016-12-05T00:54:37.173Z,0
2016-12-05T00:55:37.797Z,0
2016-12-05T00:56:38.439Z,0
2016-12-05T00:57:39.051Z,0
2016-12-05T00:58:39.660Z,0
2016-12-05T00:59:40.266Z,0
2016-12-05T01:00:40.889Z,0
2016-12-05T01:01:41.513Z,0
2016-12-05T01:02:42.139Z,0
2016-12-05T01:03:42.793Z,0
2016-12-05T01:04:43.394Z,0
2016-12-05T01:05:44.016Z,0
2016-12-05T01:06:44.641Z,0
2016-12-05T01:07:45.278Z,0
2016-12-05T01:08:45.898Z,0
2016-12-05T01:09:46.523Z,0
2016-12-05T01:10:47.226Z,0
2016-12-05T01:11:47.858Z,0
2016-12-05T01:12:48.488Z,0
2016-12-05T01:13:49.141Z,0
2016-12-05T01:14:49.756Z,0
2016-12-05T01:15:50.395Z,0
2016-12-05T01:16:51.007Z,0
2016-12-05T01:17:51.617Z,0
2016-12-05T01:18:52.231Z,0
2016-12-05T01:19:52.859Z,0
2016-12-05T01:20:53.482Z,0
2016-12-05T01:21:54.103Z,0
2016-12-05T01:22:54.718Z,0
2016-12-05T01:23:55.337Z,0
2016-12-05T01:24:55.974Z,0
2016-12-05T01:25:56.598Z,0
2016-12-05T01:26:57.229Z,0
2016-12-05T01:27:57.855Z,0
2016-12-05T01:28:58.483Z,0
2016-12-05T01:29:59.100Z,0
2016-12-05T01:30:59.750Z,0
2016-12-05T01:32:00.371Z,0
2016-12-05T01:33:01.015Z,0
2016-12-05T01:34:01.635Z,0
2016-12-05T01:35:02.250Z,0
2016-12-05T01:36:02.946Z,0
2016-12-05T01:37:03.532Z,0
2016-12-05T01:38:04.172Z,0
2016-12-05T01:39:04.795Z,0
2016-12-05T01:40:05.403Z,0
2016-12-05T01:41:06.038Z,0
2016-12-05T01:42:06.683Z,0
2016-12-05T01:43:07.300Z,0
2016-12-05T01:44:07.919Z,0
2016-12-05T01:45:08.533Z,0
2016-12-05T01:46:09.159Z,0
2016-12-05T01:47:09.799Z,0
2016-12-05T01:48:10.428Z,0
2016-12-05T01:49:11.060Z,0
2016-12-05T01:50:11.720Z,0
2016-12-05T01:51:12.352Z,0
2016-12-05T01:52:12.984Z,0
2016-12-05T01:53:13.613Z,0
2016-12-05T01:54:14.242Z,0
2016-12-05T01:55:14.880Z,0
2016-12-05T01:56:15.501Z,0
2016-12-05T01:57:16.124Z,0
2016-12-05T01:58:16.740Z,0
2016-12-05T01:59:17.361Z,0
2016-12-05T02:00:17.973Z,0
2016-12-05T02:01:18.590Z,0
2016-12-05T02:02:19.222Z,0
2016-12-05T02:03:19.846Z,0
2016-12-05T02:04:20.457Z,0
2016-12-05T02:05:21.080Z,0
2016-12-05T02:06:21.701Z,0
2016-12-05T02:07:22.328Z,0
2016-12-05T02:08:22.952Z,0
2016-12-05T02:09:23.570Z,0
2016-12-05T02:10:24.183Z,0
2016-12-05T02:11:24.807Z,0
2016-12-05T02:12:32.014Z,0
2016-12-05T02:13:32.618Z,0
2016-12-05T02:14:33.227Z,0
2016-12-05T02:15:33.860Z,0
2016-12-05T02:16:34.981Z,0
2016-12-05T02:17:35.594Z,0
2016-12-05T02:18:36.224Z,0
2016-12-05T02:19:36.838Z,0
2016-12-05T02:20:37.464Z,0
2016-12-05T02:21:38.084Z,0
2016-12-05T02:22:38.719Z,0
2016-12-05T02:23:39.336Z,0
2016-12-05T02:24:39.936Z,0
2016-12-05T02:25:40.565Z,0
2016-12-05T02:26:41.178Z,0
2016-12-05T02:27:41.815Z,0
2016-12-05T02:28:42.430Z,0
2016-12-05T02:29:43.042Z,0
2016-12-05T02:30:43.666Z,0
2016-12-05T02:31:44.284Z,0
2016-12-05T02:32:44.915Z,0
2016-12-05T02:33:45.544Z,0
2016-12-05T02:34:46.172Z,0
2016-12-05T02:35:46.781Z,0
2016-12-05T02:36:47.390Z,0
2016-12-05T02:37:48.019Z,0
2016-12-05T02:38:48.631Z,0
2016-12-05T02:39:49.256Z,0
2016-12-05T02:40:49.869Z,0
2016-12-05T02:41:50.482Z,0
2016-12-05T02:42:51.094Z,0
2016-12-05T02:43:51.702Z,0
2016-12-05T02:44:52.329Z,0
2016-12-05T02:45:52.963Z,0
2016-12-05T02:46:53.641Z,0
2016-12-05T02:47:55.143Z,0
2016-12-05T02:48:55.759Z,0
2016-12-05T02:49:56.409Z,0
2016-12-05T02:50:57.037Z,0
2016-12-05T02:51:57.680Z,0
2016-12-05T02:52:58.313Z,0
2016-12-05T02:53:58.915Z,0
2016-12-05T02:54:59.556Z,0
2016-12-05T02:56:00.149Z,0
2016-12-05T02:57:00.794Z,0
2016-12-05T02:58:01.415Z,0
2016-12-05T02:59:02.033Z,0
2016-12-05T03:00:02.684Z,0
2016-12-05T03:01:03.367Z,0
2016-12-05T03:02:03.999Z,0
2016-12-05T03:03:04.624Z,0
2016-12-05T03:04:05.246Z,0
2016-12-05T03:05:05.906Z,0
2016-12-05T03:06:06.519Z,0
2016-12-05T03:07:07.154Z,0
2016-12-05T03:08:07.770Z,0
2016-12-05T03:09:08.384Z,0
2016-12-05T03:10:08.994Z,0
2016-12-05T03:11:09.626Z,0
2016-12-05T03:12:10.236Z,0
2016-12-05T03:13:10.871Z,0
2016-12-05T03:14:11.497Z,0
2016-12-05T03:15:12.127Z,0
2016-12-05T03:16:12.743Z,0
2016-12-05T03:17:13.350Z,0
2016-12-05T03:18:13.981Z,0
2016-12-05T03:19:14.602Z,0
2016-12-05T03:20:15.214Z,0
2016-12-05T03:21:15.843Z,0
2016-12-05T03:22:16.459Z,0
2016-12-05T03:23:17.085Z,0
2016-12-05T03:24:17.703Z,0
2016-12-05T03:25:18.308Z,0
2016-12-05T03:26:18.934Z,0
2016-12-05T03:27:19.571Z,0
2016-12-05T03:28:20.195Z,0
2016-12-05T03:29:20.806Z,0
2016-12-05T03:30:21.441Z,0
2016-12-05T03:31:22.045Z,0
2016-12-05T03:32:22.666Z,0
2016-12-05T03:33:23.292Z,0
2016-12-05T03:34:23.923Z,0
2016-12-05T03:35:24.543Z,0
2016-12-05T03:36:25.152Z,0
2016-12-05T03:37:25.776Z,0
2016-12-05T03:38:26.393Z,0
2016-12-05T03:39:27.020Z,0
2016-12-05T03:40:27.644Z,0
2016-12-05T03:41:28.289Z,0
2016-12-05T03:42:28.895Z,0
2016-12-05T03:43:29.509Z,0
2016-12-05T03:44:30.128Z,0
2016-12-05T03:45:30.750Z,0
2016-12-05T03:46:31.372Z,0
2016-12-05T03:47:31.997Z,0
2016-12-05T03:48:32.620Z,0
2016-12-05T03:49:33.244Z,0
2016-12-05T03:50:33.855Z,0
2016-12-05T03:51:34.480Z,0
2016-12-05T03:52:35.101Z,0
2016-12-05T03:53:35.725Z,0
2016-12-05T03:54:36.340Z,0
2016-12-05T03:55:37.020Z,0
2016-12-05T03:56:37.670Z,0
2016-12-05T03:57:38.322Z,0
2016-12-05T03:58:38.981Z,0
2016-12-05T03:59:39.606Z,0
2016-12-05T04:00:40.273Z,0
2016-12-05T04:01:40.898Z,0
2016-12-05T04:02:41.523Z,0
2016-12-05T04:03:42.148Z,0
2016-12-05T04:04:42.760Z,0
2016-12-05T04:05:43.380Z,0
2016-12-05T04:06:44.027Z,0
2016-12-05T04:07:44.638Z,0
2016-12-05T04:08:45.258Z,0
2016-12-05T04:09:45.862Z,0
2016-12-05T04:10:46.539Z,0
2016-12-05T04:11:47.213Z,0
2016-12-05T04:12:47.829Z,0
2016-12-05T04:13:48.461Z,0
2016-12-05T04:14:49.073Z,0
2016-12-05T04:15:49.690Z,0
2016-12-05T04:16:50.309Z,0
2016-12-05T04:17:50.935Z,0
2016-12-05T04:18:51.557Z,0
2016-12-05T04:19:52.199Z,0
2016-12-05T04:20:52.820Z,0
2016-12-05T04:21:53.436Z,0
2016-12-05T04:22:54.082Z,0
2016-12-05T04:23:54.724Z,0
2016-12-05T04:24:55.355Z,0
2016-12-05T04:25:55.962Z,0
2016-12-05T04:26:56.586Z,0
2016-12-05T04:27:57.222Z,0
2016-12-05T04:28:57.824Z,0
2016-12-05T04:29:58.451Z,0
2016-12-05T04:30:59.078Z,0
2016-12-05T04:31:59.687Z,0
2016-12-05T04:33:00.311Z,0
2016-12-05T04:34:00.957Z,0
2016-12-05T04:35:01.622Z,0
2016-12-05T04:36:02.220Z,0
2016-12-05T04:37:02.844Z,0
2016-12-05T04:38:03.459Z,0
2016-12-05T04:39:04.098Z,0
2016-12-05T04:40:04.717Z,0
2016-12-05T04:41:05.327Z,0
2016-12-05T04:42:05.941Z,0
2016-12-05T04:43:06.561Z,0
2016-12-05T04:44:07.196Z,0
2016-12-05T04:45:07.817Z,0
2016-12-05T04:46:08.428Z,0
2016-12-05T04:47:09.050Z,0
2016-12-05T04:48:09.670Z,0
2016-12-05T04:49:10.348Z,0
2016-12-05T04:50:10.993Z,0
2016-12-05T04:51:11.635Z,0
2016-12-05T04:52:12.254Z,0
2016-12-05T04:53:12.878Z,0
2016-12-05T04:54:13.507Z,0
2016-12-05T04:55:14.119Z,0
2016-12-05T04:56:14.739Z,0
2016-12-05T04:57:15.414Z,0
2016-12-05T04:58:16.035Z,0
2016-12-05T04:59:16.674Z,0
2016-12-05T05:00:17.282Z,0
2016-12-05T05:01:17.899Z,0
2016-12-05T05:02:18.529Z,0
2016-12-05T05:03:19.150Z,0
2016-12-05T05:04:19.771Z,0
2016-12-05T05:05:20.394Z,0
2016-12-05T05:06:21.016Z,0
2016-12-05T05:07:21.655Z,0
2016-12-05T05:08:22.282Z,0
2016-12-05T05:09:22.910Z,0
2016-12-05T05:10:23.543Z,0
2016-12-05T05:11:24.158Z,0
2016-12-05T05:12:24.788Z,0
2016-12-05T05:13:25.416Z,0
2016-12-05T05:14:26.028Z,0
2016-12-05T05:15:26.643Z,0
2016-12-05T05:16:27.254Z,0
2016-12-05T05:17:27.894Z,0
2016-12-05T05:18:28.509Z,0
2016-12-05T05:19:29.123Z,0
2016-12-05T05:20:29.743Z,0
2016-12-05T05:21:30.364Z,0
2016-12-05T05:22:30.986Z,0
2016-12-05T05:23:31.615Z,0
2016-12-05T05:24:32.241Z,0
2016-12-05T05:25:32.857Z,0
2016-12-05T05:26:33.478Z,0
2016-12-05T05:27:34.121Z,0
2016-12-05T05:28:34.721Z,0
2016-12-05T05:29:35.345Z,0
2016-12-05T05:30:35.971Z,0
2016-12-05T05:31:36.585Z,0
2016-12-05T05:32:37.204Z,0
2016-12-05T05:33:37.846Z,0
2016-12-05T05:34:38.461Z,0
2016-12-05T05:35:39.071Z,0
2016-12-05T05:36:39.693Z,0
2016-12-05T05:37:40.312Z,0
2016-12-05T05:38:40.951Z,0
2016-12-05T05:39:41.572Z,0
2016-12-05T05:40:42.225Z,0
2016-12-05T05:41:42.828Z,0
2016-12-05T05:42:43.450Z,0
2016-12-05T05:43:44.074Z,0
2016-12-05T05:44:44.683Z,0
2016-12-05T05:45:45.295Z,0
2016-12-05T05:46:45.926Z,0
2016-12-05T05:47:46.539Z,0
2016-12-05T05:48:47.161Z,0
2016-12-05T05:49:47.785Z,0
2016-12-05T05:50:48.395Z,0
2016-12-05T05:51:49.028Z,0
2016-12-05T05:52:49.645Z,0
2016-12-05T05:53:50.251Z,0
2016-12-05T05:54:50.881Z,0
2016-12-05T05:55:51.512Z,0
2016-12-05T05:56:52.131Z,0
2016-12-05T05:57:52.754Z,0
2016-12-05T05:58:53.364Z,0
2016-12-05T05:59:54.062Z,0
2016-12-05T06:00:54.682Z,0
2016-12-05T06:01:55.298Z,0
2016-12-05T06:02:55.922Z,0
2016-12-05T06:03:56.545Z,0
2016-12-05T06:04:57.187Z,0
2016-12-05T06:05:57.835Z,0
2016-12-05T06:06:58.445Z,0
2016-12-05T06:07:59.082Z,0
2016-12-05T06:08:59.692Z,0
2016-12-05T06:10:00.309Z,0
2016-12-05T06:11:00.945Z,0
2016-12-05T06:12:01.563Z,0
2016-12-05T06:13:02.171Z,0
2016-12-05T06:14:02.797Z,0
2016-12-05T06:15:03.422Z,0
2016-12-05T06:16:04.048Z,0
2016-12-05T06:17:04.660Z,0
2016-12-05T06:18:05.287Z,0
2016-12-05T06:19:05.903Z,0
2016-12-05T06:20:06.537Z,0
2016-12-05T06:21:07.142Z,0
2016-12-05T06:22:07.753Z,0
2016-12-05T06:23:08.382Z,0
2016-12-05T06:24:09.000Z,0
2016-12-05T06:25:09.618Z,0
2016-12-05T06:26:10.228Z,0
2016-12-05T06:27:10.872Z,0
2016-12-05T06:28:11.476Z,0
2016-12-05T06:29:12.092Z,0
2016-12-05T06:30:12.726Z,0
2016-12-05T06:31:13.332Z,0
2016-12-05T06:32:13.978Z,0
2016-12-05T06:33:14.582Z,0
2016-12-05T06:34:15.208Z,0
2016-12-05T06:35:15.824Z,0
2016-12-05T06:36:16.489Z,0
2016-12-05T06:37:17.120Z,0
2016-12-05T06:38:17.747Z,0
2016-12-05T06:39:18.543Z,0
2016-12-05T06:40:19.194Z,0
2016-12-05T06:41:19.817Z,0
2016-12-05T06:42:20.445Z,0
2016-12-05T06:43:21.053Z,0
2016-12-05T06:44:21.677Z,0
2016-12-05T06:45:22.295Z,0
2016-12-05T06:46:22.934Z,0
2016-12-05T06:47:23.554Z,0
2016-12-05T06:48:24.169Z,0
2016-12-05T06:49:24.807Z,0
2016-12-05T06:50:25.436Z,0
2016-12-05T06:51:26.052Z,0
2016-12-05T06:52:26.803Z,0
2016-12-05T06:53:27.427Z,0
2016-12-05T06:54:28.038Z,0
2016-12-05T06:55:28.659Z,0
2016-12-05T06:56:29.267Z,0
2016-12-05T06:57:29.891Z,0
2016-12-05T06:58:30.501Z,0
2016-12-05T06:59:31.137Z,0
2016-12-05T07:00:31.746Z,0
2016-12-05T07:01:32.385Z,0
2016-12-05T07:02:33.015Z,0
2016-12-05T07:03:33.658Z,0
2016-12-05T07:04:34.288Z,0
2016-12-05T07:05:34.902Z,0
2016-12-05T07:06:35.519Z,5
2016-12-05T07:07:36.141Z,5
2016-12-05T07:08:36.757Z,5
2016-12-05T07:09:37.365Z,5
2016-12-05T07:10:37.973Z,5
2016-12-05T07:11:38.591Z,5
2016-12-05T07:12:39.239Z,5
2016-12-05T07:13:39.877Z,5
2016-12-05T07:14:40.489Z,10
2016-12-05T07:15:41.113Z,10
2016-12-05T07:16:41.745Z,10
2016-12-05T07:17:42.363Z,10
2016-12-05T07:18:42.980Z,10
2016-12-05T07:19:43.599Z,10
2016-12-05T07:20:44.221Z,15
2016-12-05T07:21:44.845Z,15
2016-12-05T07:22:45.455Z,15
2016-12-05T07:23:46.093Z,15
2016-12-05T07:24:46.715Z,15
2016-12-05T07:25:47.332Z,20
2016-12-05T07:26:47.959Z,20
2016-12-05T07:27:48.585Z,20
2016-12-05T07:28:49.224Z,20
2016-12-05T07:29:49.844Z,20
2016-12-05T07:30:50.514Z,25
2016-12-05T07:31:51.164Z,25
2016-12-05T07:32:51.803Z,25
2016-12-05T07:33:52.431Z,25
2016-12-05T07:34:53.093Z,30
2016-12-05T07:35:53.719Z,30
2016-12-05T07:36:54.422Z,30
2016-12-05T07:37:55.042Z,30
2016-12-05T07:38:55.690Z,35
2016-12-05T07:39:56.343Z,35
2016-12-05T07:40:56.994Z,35
2016-12-05T07:41:57.627Z,35
2016-12-05T07:42:58.251Z,40
2016-12-05T07:43:58.912Z,40
2016-12-05T07:44:59.567Z,40
2016-12-05T07:46:00.175Z,40
2016-12-05T07:47:00.816Z,45
2016-12-05T07:48:01.492Z,45
2016-12-05T07:49:02.131Z,45
2016-12-05T07:50:02.752Z,45
2016-12-05T07:51:03.390Z,50
2016-12-05T07:52:04.034Z,50
2016-12-05T07:53:04.797Z,50
2016-12-05T07:54:05.459Z,55
2016-12-05T07:55:06.101Z,55
2016-12-05T07:56:06.713Z,55
2016-12-05T07:57:07.331Z,55
2016-12-05T07:58:07.996Z,60
2016-12-05T07:59:08.659Z,60
2016-12-05T08:00:09.347Z,60
2016-12-05T08:01:10.192Z,60
2016-12-05T08:02:10.750Z,65
2016-12-05T08:03:11.378Z,65
2016-12-05T08:04:12.035Z,65
2016-12-05T08:05:12.659Z,65
2016-12-05T08:06:13.313Z,70
2016-12-05T08:07:13.963Z,70
2016-12-05T08:08:14.579Z,70
2016-12-05T08:09:15.197Z,80
2016-12-05T08:10:15.846Z,80
2016-12-05T08:11:16.478Z,80
2016-12-05T08:12:17.146Z,80
2016-12-05T08:13:17.825Z,80
2016-12-05T08:14:18.440Z,80
2016-12-05T08:15:19.055Z,80
2016-12-05T08:16:19.682Z,80
2016-12-05T08:17:20.306Z,85
2016-12-05T08:18:20.927Z,85
2016-12-05T08:19:21.551Z,85
2016-12-05T08:20:22.167Z,85
2016-12-05T08:21:22.792Z,85
2016-12-05T08:22:23.447Z,90
2016-12-05T08:23:24.065Z,90
2016-12-05T08:24:24.711Z,90
2016-12-05T08:25:25.388Z,95
2016-12-05T08:26:25.995Z,95
2016-12-05T08:27:26.624Z,105
2016-12-05T08:28:27.288Z,105
2016-12-05T08:29:27.902Z,115
2016-12-05T08:30:28.532Z,125
2016-12-05T08:31:29.156Z,145
2016-12-05T08:32:29.782Z,155
2016-12-05T08:33:30.414Z,170
2016-12-05T08:34:31.027Z,170
2016-12-05T08:35:31.645Z,180
2016-12-05T08:36:32.261Z,180
2016-12-05T08:37:32.883Z,185
2016-12-05T08:38:33.501Z,185
2016-12-05T08:39:34.111Z,185
2016-12-05T08:40:34.731Z,165
2016-12-05T08:41:35.371Z,135
2016-12-05T08:42:35.998Z,115
2016-12-05T08:43:36.628Z,115
2016-12-05T08:44:37.243Z,115
2016-12-05T08:45:37.861Z,115
2016-12-05T08:46:38.467Z,115
2016-12-05T08:47:39.089Z,115
2016-12-05T08:48:39.699Z,115
2016-12-05T08:49:40.317Z,115
2016-12-05T08:50:40.934Z,120
2016-12-05T08:51:41.567Z,115
2016-12-05T08:52:42.195Z,120
2016-12-05T08:53:42.843Z,120
2016-12-05T08:54:43.464Z,115
2016-12-05T08:55:44.093Z,120
2016-12-05T08:56:44.712Z,120
2016-12-05T08:57:45.340Z,120
2016-12-05T08:58:45.971Z,120
2016-12-05T08:59:46.613Z,120
2016-12-05T09:00:47.245Z,120
2016-12-05T09:01:47.875Z,120
2016-12-05T09:02:48.485Z,120
2016-12-05T09:03:49.097Z,120
2016-12-05T09:04:49.732Z,125
2016-12-05T09:05:50.351Z,125
2016-12-05T09:06:50.986Z,125
2016-12-05T09:07:51.594Z,125
2016-12-05T09:08:52.271Z,130
2016-12-05T09:09:52.883Z,130
2016-12-05T09:10:53.514Z,130
2016-12-05T09:11:54.156Z,130
2016-12-05T09:12:54.797Z,130
2016-12-05T09:13:55.422Z,130
2016-12-05T09:14:56.039Z,130
2016-12-05T09:15:56.665Z,130
2016-12-05T09:16:57.282Z,130
2016-12-05T09:17:57.914Z,130
2016-12-05T09:18:58.564Z,130
2016-12-05T09:19:59.184Z,130
2016-12-05T09:20:59.798Z,130
2016-12-05T09:22:00.427Z,130
2016-12-05T09:23:01.048Z,125
2016-12-05T09:24:01.672Z,125
2016-12-05T09:25:02.317Z,125
2016-12-05T09:26:02.952Z,130
2016-12-05T09:27:03.568Z,130
2016-12-05T09:28:04.205Z,130
2016-12-05T09:29:04.830Z,130
2016-12-05T09:30:05.438Z,130
2016-12-05T09:31:06.066Z,130
2016-12-05T09:32:06.693Z,130
2016-12-05T09:33:07.304Z,130
2016-12-05T09:34:07.930Z,130
2016-12-05T09:35:08.617Z,130
2016-12-05T09:36:09.262Z,130
2016-12-05T09:37:09.898Z,130
2016-12-05T09:38:10.537Z,130
2016-12-05T09:39:11.182Z,130
2016-12-05T09:40:11.852Z,130
2016-12-05T09:41:12.505Z,130
2016-12-05T09:42:13.150Z,130
2016-12-05T09:43:13.796Z,130
2016-12-05T09:44:14.441Z,130
2016-12-05T09:45:15.116Z,130
2016-12-05T09:46:15.747Z,130
2016-12-05T09:47:16.398Z,130
2016-12-05T09:48:17.109Z,130
2016-12-05T09:49:17.767Z,130
2016-12-05T09:50:18.401Z,130
2016-12-05T09:51:19.035Z,135
2016-12-05T09:52:19.731Z,130
2016-12-05T09:53:20.334Z,135
2016-12-05T09:54:20.965Z,130
2016-12-05T09:55:21.584Z,130
2016-12-05T09:56:22.250Z,130
2016-12-05T09:57:22.887Z,130
2016-12-05T09:58:23.511Z,130
2016-12-05T09:59:24.160Z,130
2016-12-05T10:00:24.824Z,130
2016-12-05T10:01:25.479Z,130
2016-12-05T10:02:26.122Z,130
2016-12-05T10:03:26.795Z,130
2016-12-05T10:04:27.428Z,130
2016-12-05T10:05:28.092Z,130
2016-12-05T10:06:28.717Z,130
2016-12-05T10:07:29.363Z,130
2016-12-05T10:08:30.011Z,130
2016-12-05T10:09:30.638Z,130
2016-12-05T10:10:31.280Z,130
2016-12-05T10:11:31.928Z,130
2016-12-05T10:12:32.566Z,130
2016-12-05T10:13:33.189Z,130
2016-12-05T10:14:33.842Z,130
2016-12-05T10:15:34.494Z,130
2016-12-05T10:16:35.129Z,130
2016-12-05T10:17:35.770Z,130
2016-12-05T10:18:36.432Z,130
2016-12-05T10:19:37.065Z,130
2016-12-05T10:20:37.702Z,130
2016-12-05T10:21:38.330Z,130
2016-12-05T10:22:38.960Z,130
2016-12-05T10:23:39.590Z,130
2016-12-05T10:24:40.268Z,130
2016-12-05T10:25:40.905Z,130
2016-12-05T10:26:41.572Z,130
2016-12-05T10:27:42.195Z,130
2016-12-05T10:28:42.827Z,130
2016-12-05T10:29:43.455Z,130
2016-12-05T10:30:44.095Z,130
2016-12-05T10:31:44.750Z,130
2016-12-05T10:33:05.265Z,130
2016-12-05T10:34:05.893Z,130
2016-12-05T10:35:06.544Z,130
2016-12-05T10:36:07.180Z,130
2016-12-05T10:37:07.811Z,130
2016-12-05T10:38:08.467Z,130
2016-12-05T10:39:09.105Z,130
2016-12-05T10:40:09.728Z,130
2016-12-05T10:41:10.370Z,130
2016-12-05T10:42:10.993Z,130
2016-12-05T10:43:11.622Z,130
2016-12-05T10:44:12.283Z,130
2016-12-05T10:45:12.890Z,130
2016-12-05T10:46:13.516Z,130
2016-12-05T10:47:14.207Z,130
2016-12-05T10:48:14.811Z,130
2016-12-05T10:49:15.448Z,130
2016-12-05T10:50:16.097Z,130
2016-12-05T10:51:16.761Z,130
2016-12-05T10:52:17.370Z,130
2016-12-05T10:53:18.015Z,130
2016-12-05T10:54:18.676Z,130
2016-12-05T10:55:19.304Z,130
2016-12-05T10:56:19.954Z,130
2016-12-05T10:57:20.591Z,130
2016-12-05T10:58:21.239Z,130
2016-12-05T10:59:21.881Z,130
2016-12-05T11:00:22.524Z,130
2016-12-05T11:01:23.146Z,130
2016-12-05T11:02:23.778Z,130
2016-12-05T11:03:24.419Z,130
2016-12-05T11:04:25.046Z,130
2016-12-05T11:05:25.683Z,130
2016-12-05T11:06:26.347Z,125
2016-12-05T11:07:26.975Z,125
2016-12-05T11:08:27.658Z,125
2016-12-05T11:09:28.264Z,125
2016-12-05T11:10:28.887Z,125
2016-12-05T11:11:29.528Z,125
2016-12-05T11:12:30.173Z,125
2016-12-05T11:13:30.803Z,125
2016-12-05T11:14:31.450Z,125
2016-12-05T11:15:32.093Z,125
2016-12-05T11:16:32.733Z,125
2016-12-05T11:17:33.362Z,125
2016-12-05T11:18:33.995Z,125
2016-12-05T11:19:34.651Z,125
2016-12-05T11:20:35.318Z,125
2016-12-05T11:21:35.962Z,125
2016-12-05T11:22:36.621Z,125
2016-12-05T11:23:37.341Z,125
2016-12-05T11:24:37.932Z,125
2016-12-05T11:25:38.620Z,125
2016-12-05T11:26:39.279Z,125
2016-12-05T11:27:39.874Z,125
2016-12-05T11:28:40.517Z,125
2016-12-05T11:29:41.166Z,125
2016-12-05T11:30:41.800Z,125
2016-12-05T11:31:42.434Z,125
2016-12-05T11:32:43.079Z,125
2016-12-05T11:33:43.724Z,125
2016-12-05T11:34:44.374Z,125
2016-12-05T11:35:45.081Z,125
2016-12-05T11:36:45.707Z,125
2016-12-05T11:37:46.342Z,125
2016-12-05T11:38:46.988Z,125
2016-12-05T11:39:47.631Z,125
2016-12-05T11:40:48.281Z,120
2016-12-05T11:41:48.939Z,120
2016-12-05T11:42:49.565Z,120
2016-12-05T11:43:50.253Z,120
2016-12-05T11:44:50.858Z,120
2016-12-05T11:45:51.486Z,120
2016-12-05T11:46:52.137Z,120
2016-12-05T11:47:52.783Z,120
2016-12-05T11:48:53.431Z,120
2016-12-05T11:49:54.148Z,120
2016-12-05T11:50:54.809Z,120
2016-12-05T11:51:55.446Z,120
2016-12-05T11:52:56.078Z,120
2016-12-05T11:53:56.735Z,120
2016-12-05T11:54:57.357Z,120
2016-12-05T11:55:58.023Z,120
2016-12-05T11:56:58.652Z,120
2016-12-05T11:57:59.283Z,120
2016-12-05T11:58:59.911Z,120
2016-12-05T12:00:00.536Z,120
2016-12-05T12:01:01.164Z,115
2016-12-05T12:02:01.801Z,115
2016-12-05T12:03:02.451Z,115
2016-12-05T12:04:03.110Z,115
2016-12-05T12:05:03.724Z,115
2016-12-05T12:06:04.342Z,115
2016-12-05T12:07:04.974Z,115
2016-12-05T12:08:05.616Z,115
2016-12-05T12:09:06.234Z,115
2016-12-05T12:10:06.858Z,115
2016-12-05T12:11:07.482Z,115
2016-12-05T12:12:08.114Z,115
2016-12-05T12:13:08.740Z,115
2016-12-05T12:14:09.371Z,115
2016-12-05T12:15:10.012Z,115
2016-12-05T12:16:10.616Z,110
2016-12-05T12:17:11.256Z,110
2016-12-05T12:18:11.865Z,110
2016-12-05T12:19:12.499Z,110
2016-12-05T12:20:13.131Z,110
2016-12-05T12:21:13.770Z,110
2016-12-05T12:22:14.401Z,110
2016-12-05T12:23:15.064Z,110
2016-12-05T12:24:15.685Z,110
2016-12-05T12:25:16.307Z,110
2016-12-05T12:26:16.951Z,110
2016-12-05T12:27:17.576Z,110
2016-12-05T12:28:18.207Z,110
2016-12-05T12:29:18.839Z,110
2016-12-05T12:30:19.463Z,110
2016-12-05T12:31:20.085Z,110
2016-12-05T12:32:20.711Z,110
2016-12-05T12:33:21.341Z,105
2016-12-05T12:34:21.965Z,105
2016-12-05T12:35:22.590Z,105
2016-12-05T12:36:23.208Z,105
2016-12-05T12:37:23.827Z,105
2016-12-05T12:38:24.474Z,105
2016-12-05T12:39:25.101Z,105
2016-12-05T12:40:25.746Z,105
2016-12-05T12:41:26.378Z,105
2016-12-05T12:42:27.042Z,110
2016-12-05T12:43:27.671Z,105
2016-12-05T12:44:28.308Z,105
2016-12-05T12:45:29.027Z,105
2016-12-05T12:46:29.605Z,105
2016-12-05T12:47:30.283Z,105
2016-12-05T12:48:30.915Z,105
2016-12-05T12:49:31.539Z,105
2016-12-05T12:50:32.186Z,105
2016-12-05T12:51:32.812Z,105
2016-12-05T12:52:33.439Z,110
2016-12-05T12:53:34.118Z,115
2016-12-05T12:54:34.766Z,115
2016-12-05T12:55:35.490Z,105
2016-12-05T12:56:36.100Z,100
2016-12-05T12:57:36.721Z,100
2016-12-05T12:58:37.367Z,100
2016-12-05T12:59:38.051Z,100
2016-12-05T13:00:38.770Z,100
2016-12-05T13:01:39.450Z,95
2016-12-05T13:02:40.069Z,95
2016-12-05T13:03:40.797Z,95
2016-12-05T13:04:41.499Z,95
2016-12-05T13:05:42.278Z,95
2016-12-05T13:06:42.904Z,95
2016-12-05T13:07:43.569Z,95
2016-12-05T13:08:44.752Z,95
2016-12-05T13:09:45.391Z,105
2016-12-05T13:10:46.020Z,110
2016-12-05T13:11:46.654Z,105
2016-12-05T13:12:47.304Z,115
2016-12-05T13:13:47.951Z,120
2016-12-05T13:14:48.592Z,110
2016-12-05T13:15:49.261Z,95
2016-12-05T13:16:49.887Z,90
2016-12-05T13:17:50.571Z,85
2016-12-05T13:18:51.220Z,85
2016-12-05T13:19:51.887Z,85
2016-12-05T13:20:52.582Z,85
2016-12-05T13:21:53.185Z,85
2016-12-05T13:22:53.876Z,85
2016-12-05T13:23:54.492Z,85
2016-12-05T13:24:55.130Z,85
2016-12-05T13:25:55.763Z,80
2016-12-05T13:26:56.384Z,80
2016-12-05T13:27:57.044Z,80
2016-12-05T13:28:57.677Z,80
2016-12-05T13:29:58.332Z,80
2016-12-05T13:30:58.969Z,80
2016-12-05T13:31:59.579Z,80
2016-12-05T13:33:00.210Z,80
2016-12-05T13:34:00.912Z,80
2016-12-05T13:35:01.575Z,75
2016-12-05T13:36:02.238Z,75
2016-12-05T13:37:02.932Z,75
2016-12-05T13:38:03.544Z,75
2016-12-05T13:39:04.159Z,75
2016-12-05T13:40:04.774Z,75
2016-12-05T13:41:05.408Z,75
2016-12-05T13:42:06.089Z,75
2016-12-05T13:43:06.727Z,75
2016-12-05T13:44:07.411Z,70
2016-12-05T13:45:08.104Z,70
2016-12-05T13:46:08.810Z,70
2016-12-05T13:47:09.498Z,70
2016-12-05T13:48:10.155Z,70
2016-12-05T13:49:10.794Z,70
2016-12-05T13:50:11.416Z,70
2016-12-05T13:51:12.034Z,70
2016-12-05T13:52:12.668Z,65
2016-12-05T13:53:13.297Z,65
2016-12-05T13:54:13.932Z,65
2016-12-05T13:55:14.548Z,65
2016-12-05T13:56:15.162Z,65
2016-12-05T13:57:15.777Z,65
2016-12-05T13:58:16.395Z,65
2016-12-05T13:59:17.018Z,65
2016-12-05T14:00:17.650Z,60
2016-12-05T14:01:18.277Z,60
2016-12-05T14:02:18.882Z,60
2016-12-05T14:03:19.500Z,60
2016-12-05T14:04:20.135Z,60
2016-12-05T14:05:20.765Z,60
2016-12-05T14:06:21.383Z,60
2016-12-05T14:07:22.011Z,55
2016-12-05T14:08:22.629Z,55
2016-12-05T14:09:23.247Z,55
2016-12-05T14:10:23.877Z,55
2016-12-05T14:11:24.506Z,55
2016-12-05T14:12:25.133Z,55
2016-12-05T14:13:25.766Z,50
2016-12-05T14:14:26.397Z,50
2016-12-05T14:15:27.007Z,50
2016-12-05T14:16:27.629Z,50
2016-12-05T14:17:28.249Z,50
2016-12-05T14:18:28.858Z,50
2016-12-05T14:19:29.482Z,45
2016-12-05T14:20:30.104Z,45
2016-12-05T14:21:30.732Z,45
2016-12-05T14:22:31.344Z,45
2016-12-05T14:23:31.962Z,45
2016-12-05T14:24:32.595Z,40
2016-12-05T14:25:33.206Z,40
2016-12-05T14:26:33.848Z,40
2016-12-05T14:27:34.470Z,40
2016-12-05T14:28:35.079Z,40
2016-12-05T14:29:35.709Z,40
2016-12-05T14:30:36.315Z,35